createdAt,value
2018-05-31T00:01:28.718Z,70.80
2018-05-31T00:03:56.517Z,70.10
2018-05-31T00:06:24.284Z,70.60
2018-05-31T00:08:52.059Z,70.40
2018-05-31T00:11:19.853Z,70.00
2018-05-31T00:13:47.770Z,69.70
2018-05-31T00:16:15.737Z,70.80
2018-05-31T00:18:43.489Z,70.30
2018-05-31T00:21:11.257Z,70.00
2018-05-31T00:23:39.029Z,70.00
2018-05-31T00:26:06.781Z,69.80
2018-05-31T00:28:34.615Z,70.10
2018-05-31T00:31:02.372Z,69.10
2018-05-31T00:33:30.903Z,69.90
2018-05-31T00:35:58.669Z,69.90
2018-05-31T00:38:26.839Z,70.20
2018-05-31T00:40:54.715Z,70.70
2018-05-31T00:43:22.577Z,71.20
2018-05-31T00:45:51.264Z,71.40
2018-05-31T00:48:19.233Z,71.50
2018-05-31T00:50:47.918Z,71.60
2018-05-31T00:53:15.785Z,71.70
2018-05-31T00:55:55.634Z,71.90
2018-05-31T00:58:23.500Z,72.40
2018-05-31T01:00:51.371Z,72.70
2018-05-31T01:03:19.437Z,73.50
2018-05-31T01:05:47.229Z,72.90
2018-05-31T01:08:15.887Z,72.60
2018-05-31T01:10:43.754Z,72.60
2018-05-31T01:13:13.156Z,74.00
2018-05-31T01:15:40.949Z,74.00
2018-05-31T01:18:09.606Z,73.80
2018-05-31T01:20:37.501Z,73.60
2018-05-31T01:23:06.158Z,74.10
2018-05-31T01:25:34.128Z,74.00
2018-05-31T01:28:01.921Z,73.90
2018-05-31T01:30:30.577Z,74.30
2018-05-31T01:32:58.443Z,73.40
2018-05-31T01:35:26.236Z,74.20
2018-05-31T01:40:47.848Z,74.20
2018-05-31T01:43:15.716Z,73.50
2018-05-31T01:45:43.583Z,73.60
2018-05-31T01:48:11.449Z,73.80
2018-05-31T01:50:40.061Z,73.00
2018-05-31T01:53:08.589Z,72.90
2018-05-31T01:55:36.481Z,72.90
2018-05-31T01:58:05.168Z,73.80
2018-05-31T02:00:33.034Z,73.80
2018-05-31T02:03:00.901Z,73.50
2018-05-31T02:05:28.694Z,73.30
2018-05-31T02:07:57.351Z,73.50
2018-05-31T02:10:25.217Z,73.50
2018-05-31T02:12:53.088Z,74.10
2018-05-31T02:15:21.053Z,73.70
2018-05-31T02:17:48.920Z,74.00
2018-05-31T02:20:16.787Z,74.80
2018-05-31T02:22:45.473Z,75.60
2018-05-31T02:25:13.339Z,75.40
2018-05-31T02:27:41.205Z,75.60
2018-05-31T02:30:09.101Z,74.70
2018-05-31T02:32:37.757Z,75.00
2018-05-31T02:35:06.443Z,75.70
2018-05-31T02:37:34.310Z,75.50
2018-05-31T02:40:02.279Z,75.50
2018-05-31T02:42:30.145Z,75.20
2018-05-31T02:44:58.012Z,76.10
2018-05-31T02:47:26.708Z,76.20
2018-05-31T02:49:54.592Z,76.10
2018-05-31T02:52:23.250Z,75.70
2018-05-31T02:54:51.117Z,75.50
2018-05-31T02:57:18.983Z,75.70
2018-05-31T02:59:47.669Z,75.90
2018-05-31T03:02:15.536Z,75.70
2018-05-31T03:04:43.402Z,76.00
2018-05-31T03:07:11.268Z,76.50
2018-05-31T03:09:39.954Z,77.20
2018-05-31T03:12:08.641Z,76.30
2018-05-31T03:14:36.436Z,76.20
2018-05-31T03:17:05.091Z,76.60
2018-05-31T03:19:32.957Z,76.50
2018-05-31T03:22:00.824Z,76.30
2018-05-31T03:24:31.170Z,76.30
2018-05-31T03:27:02.620Z,76.10
2018-05-31T03:29:33.151Z,76.10
2018-05-31T03:32:01.743Z,76.90
2018-05-31T03:34:30.399Z,76.80
2018-05-31T03:36:59.086Z,76.30
2018-05-31T03:39:26.878Z,76.30
2018-05-31T03:41:55.404Z,76.10
2018-05-31T03:44:24.220Z,75.80
2018-05-31T03:46:52.085Z,75.80
2018-05-31T03:49:20.771Z,75.90
2018-05-31T03:51:48.640Z,75.90
2018-05-31T03:54:17.322Z,76.20
2018-05-31T03:56:45.190Z,76.20
2018-05-31T03:59:13.056Z,75.40
2018-05-31T04:01:41.636Z,76.00
2018-05-31T04:04:09.609Z,75.80
2018-05-31T04:06:37.489Z,75.70
2018-05-31T04:09:06.878Z,75.70
2018-05-31T04:11:34.743Z,75.60
2018-05-31T04:14:02.641Z,76.30
2018-05-31T04:16:31.390Z,76.80
2018-05-31T04:18:59.195Z,75.80
2018-05-31T04:21:27.849Z,75.20
2018-05-31T04:23:55.715Z,75.20
2018-05-31T04:26:24.327Z,76.00
2018-05-31T04:28:52.985Z,75.80
2018-05-31T04:31:20.851Z,75.80
2018-05-31T04:33:48.721Z,75.40
2018-05-31T04:36:16.687Z,75.80
2018-05-31T04:38:44.557Z,75.80
2018-05-31T04:41:12.421Z,74.60
2018-05-31T04:43:40.287Z,75.20
2018-05-31T04:46:08.973Z,74.20
2018-05-31T04:48:36.839Z,74.20
2018-05-31T04:51:04.706Z,73.50
2018-05-31T04:53:32.593Z,73.60
2018-05-31T04:56:01.258Z,74.90
2018-05-31T04:58:29.127Z,74.30
2018-05-31T05:00:56.993Z,72.70
2018-05-31T05:03:24.963Z,73.20
2018-05-31T05:05:52.857Z,73.30
2018-05-31T05:08:21.513Z,72.50
2018-05-31T05:10:49.304Z,72.50
2018-05-31T05:13:17.963Z,71.80
2018-05-31T05:15:45.932Z,71.80
2018-05-31T05:18:14.620Z,71.80
2018-05-31T05:20:42.588Z,71.80
2018-05-31T05:23:10.459Z,71.20
2018-05-31T05:25:39.140Z,68.70
2018-05-31T05:28:07.005Z,68.70
2018-05-31T05:30:35.692Z,69.60
2018-05-31T05:33:03.558Z,68.70
2018-05-31T05:35:31.425Z,68.20
2018-05-31T05:37:59.294Z,67.70
2018-05-31T05:40:27.084Z,67.60
2018-05-31T05:42:55.025Z,67.70
2018-05-31T05:45:22.886Z,67.60
2018-05-31T05:47:50.686Z,67.50
2018-05-31T05:50:19.341Z,66.10
2018-05-31T05:52:47.208Z,66.10
2018-05-31T05:55:15.076Z,66.30
2018-05-31T05:57:42.941Z,65.60
2018-05-31T06:00:10.808Z,65.30
2018-05-31T06:02:38.674Z,64.80
2018-05-31T06:05:06.465Z,64.60
2018-05-31T06:07:35.125Z,63.70
2018-05-31T06:10:03.931Z,64.70
2018-05-31T06:12:32.598Z,62.50
2018-05-31T06:15:00.467Z,62.50
2018-05-31T06:17:28.331Z,62.80
2018-05-31T06:19:56.197Z,62.50
2018-05-31T06:22:24.886Z,62.10
2018-05-31T06:24:52.750Z,62.10
2018-05-31T06:27:20.521Z,61.60
2018-05-31T06:29:48.484Z,61.20
2018-05-31T06:32:16.277Z,61.50
2018-05-31T06:34:44.933Z,60.60
2018-05-31T06:37:12.861Z,60.60
2018-05-31T06:39:41.372Z,59.60
2018-05-31T06:42:09.250Z,59.60
2018-05-31T06:44:37.219Z,59.80
2018-05-31T06:47:05.085Z,59.20
2018-05-31T06:49:32.877Z,58.80
2018-05-31T06:52:00.818Z,54.70
2018-05-31T06:54:28.691Z,47.80
2018-05-31T06:56:56.479Z,44.00
2018-05-31T06:59:24.241Z,38.80
2018-05-31T07:01:52.084Z,35.20
2018-05-31T07:04:19.946Z,33.20
2018-05-31T07:06:47.852Z,33.10
2018-05-31T07:09:16.500Z,30.50
2018-05-31T07:11:44.366Z,30.40
2018-05-31T07:14:12.335Z,30.90
2018-05-31T07:16:40.202Z,30.60
2018-05-31T07:19:08.171Z,30.90
2018-05-31T07:21:36.037Z,29.70
2018-05-31T07:24:03.828Z,28.90
2018-05-31T07:26:31.770Z,28.60
2018-05-31T07:28:59.637Z,28.40
2018-05-31T07:31:27.528Z,29.20
2018-05-31T07:33:55.473Z,29.30
2018-05-31T07:36:23.441Z,29.80
2018-05-31T07:38:51.310Z,29.10
2018-05-31T07:41:19.175Z,28.30
2018-05-31T07:43:47.041Z,28.00
2018-05-31T07:46:14.832Z,27.60
2018-05-31T07:48:43.492Z,27.20
2018-05-31T07:51:11.364Z,27.20
2018-05-31T07:53:39.226Z,27.20
2018-05-31T07:56:07.091Z,26.10
2018-05-31T07:58:34.957Z,25.50
2018-05-31T08:01:02.925Z,26.30
2018-05-31T08:03:30.794Z,25.90
2018-05-31T08:05:58.719Z,25.70
2018-05-31T08:08:27.346Z,26.60
2018-05-31T08:10:55.135Z,26.50
2018-05-31T08:13:22.977Z,25.60
2018-05-31T08:15:50.841Z,25.70
2018-05-31T08:18:18.709Z,26.10
2018-05-31T08:20:46.642Z,26.00
2018-05-31T08:23:15.262Z,25.80
2018-05-31T08:25:43.130Z,25.80
2018-05-31T08:28:11.097Z,25.00
2018-05-31T08:30:38.993Z,24.00
2018-05-31T08:33:06.758Z,24.50
2018-05-31T08:35:34.697Z,22.10
2018-05-31T08:38:02.564Z,22.50
2018-05-31T08:40:30.432Z,22.10
2018-05-31T08:42:58.298Z,22.10
2018-05-31T08:45:26.164Z,21.70
2018-05-31T08:47:53.987Z,22.50
2018-05-31T08:50:22.000Z,22.40
2018-05-31T08:52:49.866Z,23.00
2018-05-31T08:55:17.733Z,23.30
2018-05-31T08:57:45.599Z,23.70
2018-05-31T09:00:13.879Z,23.40
2018-05-31T09:02:44.139Z,23.10
2018-05-31T09:05:12.089Z,23.10
2018-05-31T09:07:39.845Z,23.00
2018-05-31T09:10:07.662Z,23.60
2018-05-31T09:12:35.421Z,23.20
2018-05-31T09:15:03.284Z,23.50
2018-05-31T09:17:31.042Z,23.80
2018-05-31T09:19:59.552Z,23.00
2018-05-31T09:22:27.317Z,23.00
2018-05-31T09:24:55.064Z,23.50
2018-05-31T09:27:22.819Z,24.20
2018-05-31T09:29:50.651Z,23.80
2018-05-31T09:32:18.409Z,23.20
2018-05-31T09:34:46.170Z,22.90
2018-05-31T09:37:13.957Z,22.50
2018-05-31T09:39:42.489Z,23.60
2018-05-31T09:42:10.268Z,23.60
2018-05-31T09:44:38.032Z,23.80
2018-05-31T09:47:05.797Z,25.40
2018-05-31T09:49:33.572Z,25.70
2018-05-31T09:52:01.338Z,24.70
2018-05-31T09:54:29.100Z,25.30
2018-05-31T09:56:56.857Z,26.10
2018-05-31T09:59:24.609Z,26.00
2018-05-31T10:01:52.364Z,26.10
2018-05-31T10:04:20.126Z,25.70
2018-05-31T10:06:47.901Z,25.80
2018-05-31T10:09:15.659Z,25.80
2018-05-31T10:11:43.438Z,26.30
2018-05-31T10:14:11.241Z,26.40
2018-05-31T10:16:39.761Z,27.50
2018-05-31T10:19:07.836Z,27.50
2018-05-31T10:21:35.610Z,28.20
2018-05-31T10:24:03.472Z,27.70
2018-05-31T10:26:31.230Z,28.40
2018-05-31T10:28:58.982Z,29.70
2018-05-31T10:31:26.744Z,30.40
2018-05-31T10:33:54.493Z,31.50
2018-05-31T10:36:23.026Z,31.60
2018-05-31T10:38:50.778Z,31.60
2018-05-31T10:41:18.535Z,32.60
2018-05-31T10:43:46.294Z,32.50
2018-05-31T10:46:14.089Z,33.50
2018-05-31T10:48:41.894Z,33.70
2018-05-31T10:51:10.413Z,33.40
2018-05-31T10:53:38.169Z,33.40
2018-05-31T10:56:05.925Z,33.20
2018-05-31T10:58:33.677Z,34.40
2018-05-31T11:01:02.216Z,33.90
2018-05-31T11:03:29.981Z,33.70
2018-05-31T11:05:57.733Z,34.40
2018-05-31T11:08:25.489Z,35.00
2018-05-31T11:10:53.245Z,35.80
2018-05-31T11:13:21.008Z,36.00
2018-05-31T11:15:48.765Z,36.40
2018-05-31T11:18:16.553Z,36.80
2018-05-31T11:20:44.304Z,35.70
2018-05-31T11:23:12.053Z,35.70
2018-05-31T11:25:39.814Z,36.00
2018-05-31T11:28:07.564Z,36.30
2018-05-31T11:30:35.356Z,36.60
2018-05-31T11:33:03.118Z,37.00
2018-05-31T11:35:30.877Z,35.80
2018-05-31T11:37:58.626Z,36.20
2018-05-31T11:40:26.379Z,36.30
2018-05-31T11:42:54.909Z,36.50
2018-05-31T11:45:22.711Z,36.50
2018-05-31T11:47:50.474Z,36.20
2018-05-31T11:50:18.229Z,36.40
2018-05-31T11:52:45.980Z,37.10
2018-05-31T11:55:13.735Z,38.40
2018-05-31T11:57:41.507Z,38.40
2018-05-31T12:00:09.273Z,37.80
2018-05-31T12:02:37.029Z,38.40
2018-05-31T12:05:04.854Z,37.60
2018-05-31T12:07:32.613Z,38.40
2018-05-31T12:10:01.140Z,38.90
2018-05-31T12:12:28.893Z,38.90
2018-05-31T12:14:56.677Z,39.30
2018-05-31T12:17:24.480Z,39.40
2018-05-31T12:19:52.220Z,39.30
2018-05-31T12:22:19.973Z,39.50
2018-05-31T12:24:47.730Z,39.60
2018-05-31T12:27:15.493Z,39.30
2018-05-31T12:29:43.284Z,39.60
2018-05-31T12:32:11.097Z,39.40
2018-05-31T12:34:38.872Z,39.90
2018-05-31T12:37:06.624Z,40.10
2018-05-31T12:39:35.001Z,39.70
2018-05-31T12:42:02.925Z,39.50
2018-05-31T12:44:32.164Z,40.50
2018-05-31T12:47:00.013Z,40.50
2018-05-31T12:49:28.699Z,41.50
2018-05-31T12:51:57.323Z,40.90
2018-05-31T12:54:25.627Z,41.50
2018-05-31T12:56:54.321Z,41.20
2018-05-31T12:59:22.482Z,40.40
2018-05-31T13:01:50.485Z,40.60
2018-05-31T13:04:19.262Z,41.20
2018-05-31T13:06:47.540Z,41.10
2018-05-31T13:09:16.721Z,41.20
2018-05-31T13:11:45.325Z,41.20
2018-05-31T13:14:14.484Z,42.50
2018-05-31T13:16:42.501Z,42.40
2018-05-31T13:19:11.953Z,42.30
2018-05-31T13:21:39.724Z,42.20
2018-05-31T13:24:08.038Z,42.10
2018-05-31T13:26:36.925Z,42.70
2018-05-31T13:29:06.260Z,42.00
2018-05-31T13:31:34.305Z,42.00
2018-05-31T13:34:02.949Z,42.30
2018-05-31T13:36:31.078Z,42.30
2018-05-31T13:38:59.736Z,42.60
2018-05-31T13:41:28.676Z,43.50
2018-05-31T13:43:56.793Z,43.50
2018-05-31T13:46:25.257Z,43.40
2018-05-31T13:48:53.918Z,43.60
2018-05-31T13:51:22.302Z,44.00
2018-05-31T13:53:50.890Z,43.50
2018-05-31T13:56:20.670Z,44.10
2018-05-31T13:58:49.305Z,43.80
2018-05-31T14:01:17.916Z,43.70
2018-05-31T14:03:46.789Z,43.60
2018-05-31T14:06:15.934Z,43.80
2018-05-31T14:08:44.349Z,43.70
2018-05-31T14:11:12.672Z,43.50
2018-05-31T14:13:40.661Z,43.40
2018-05-31T14:16:09.197Z,43.60
2018-05-31T14:18:37.272Z,44.00
2018-05-31T14:21:05.926Z,44.30
2018-05-31T14:23:33.684Z,44.90
2018-05-31T14:26:01.441Z,45.10
2018-05-31T14:28:29.204Z,44.80
2018-05-31T14:30:56.968Z,44.90
2018-05-31T14:33:24.761Z,44.80
2018-05-31T14:35:52.585Z,45.10
2018-05-31T14:38:20.346Z,45.40
2018-05-31T14:40:48.118Z,45.20
2018-05-31T14:43:15.946Z,45.20
2018-05-31T14:45:43.730Z,45.30
2018-05-31T14:48:11.482Z,45.30
2018-05-31T14:50:40.000Z,45.00
2018-05-31T14:53:07.757Z,45.00
2018-05-31T14:55:35.516Z,45.50
2018-05-31T14:58:03.285Z,45.70
2018-05-31T15:00:31.173Z,45.60
2018-05-31T15:02:58.938Z,45.80
2018-05-31T15:05:26.728Z,45.90
2018-05-31T15:07:54.486Z,45.70
2018-05-31T15:10:22.260Z,45.90
2018-05-31T15:12:50.049Z,46.20
2018-05-31T15:15:18.579Z,46.20
2018-05-31T15:17:47.092Z,46.30
2018-05-31T15:20:15.668Z,46.60
2018-05-31T15:22:43.511Z,46.60
2018-05-31T15:25:11.375Z,46.80
2018-05-31T15:27:39.135Z,46.70
2018-05-31T15:30:06.930Z,46.10
2018-05-31T15:32:34.682Z,46.70
2018-05-31T15:35:02.451Z,47.00
2018-05-31T15:37:30.207Z,47.10
2018-05-31T15:39:57.960Z,47.30
2018-05-31T15:42:25.719Z,47.30
2018-05-31T15:44:53.539Z,47.50
2018-05-31T15:47:22.061Z,47.80
2018-05-31T15:49:49.900Z,47.80
2018-05-31T15:52:17.804Z,47.90
2018-05-31T15:54:45.569Z,48.20
2018-05-31T15:57:13.435Z,48.30
2018-05-31T15:59:41.198Z,48.80
2018-05-31T16:02:08.969Z,48.60
2018-05-31T16:04:36.745Z,48.70
2018-05-31T16:07:04.560Z,48.50
2018-05-31T16:09:32.316Z,48.40
2018-05-31T16:12:00.064Z,48.60
2018-05-31T16:14:28.584Z,49.10
2018-05-31T16:16:56.336Z,49.10
2018-05-31T16:19:24.089Z,49.40
2018-05-31T16:21:51.901Z,49.50
2018-05-31T16:24:19.676Z,49.40
2018-05-31T16:26:47.456Z,49.50
2018-05-31T16:29:16.942Z,49.80
2018-05-31T16:31:44.700Z,49.70
2018-05-31T16:34:12.472Z,50.20
2018-05-31T16:36:40.225Z,50.50
2018-05-31T16:39:08.008Z,50.50
2018-05-31T16:41:35.775Z,50.50
2018-05-31T16:44:03.594Z,50.60
2018-05-31T16:46:31.352Z,50.10
2018-05-31T16:48:59.119Z,50.20
2018-05-31T16:51:26.871Z,50.50
2018-05-31T16:53:54.645Z,50.60
2018-05-31T16:56:22.443Z,50.70
2018-05-31T16:58:50.233Z,50.80
2018-05-31T17:01:18.096Z,51.00
2018-05-31T17:03:46.037Z,51.10
2018-05-31T17:06:13.796Z,51.00
2018-05-31T17:08:41.667Z,51.10
2018-05-31T17:11:09.637Z,51.30
2018-05-31T17:13:37.399Z,51.40
2018-05-31T17:16:05.185Z,51.60
2018-05-31T17:18:32.947Z,51.90
2018-05-31T17:21:00.700Z,52.10
2018-05-31T17:23:28.456Z,52.40
2018-05-31T17:25:56.216Z,52.50
2018-05-31T17:28:23.980Z,52.70
2018-05-31T17:30:51.770Z,52.90
2018-05-31T17:33:19.537Z,54.00
2018-05-31T17:35:47.484Z,53.60
2018-05-31T17:38:15.277Z,53.90
2018-05-31T17:40:43.172Z,53.90
2018-05-31T17:43:10.922Z,54.20
2018-05-31T17:45:39.568Z,54.50
2018-05-31T17:48:08.253Z,54.50
2018-05-31T17:50:36.641Z,54.70
2018-05-31T17:53:04.494Z,55.00
2018-05-31T17:55:32.571Z,55.10
2018-05-31T17:58:00.906Z,55.40
2018-05-31T18:00:29.000Z,55.50
2018-05-31T18:02:56.748Z,55.50
2018-05-31T18:05:24.540Z,56.20
2018-05-31T18:07:52.891Z,56.60
2018-05-31T18:10:21.603Z,56.50
2018-05-31T18:12:49.537Z,56.50
2018-05-31T18:15:19.800Z,57.40
2018-05-31T18:17:49.277Z,57.40
2018-05-31T18:20:17.581Z,57.50
2018-05-31T18:22:45.392Z,57.50
2018-05-31T18:25:13.917Z,57.90
2018-05-31T18:27:42.865Z,57.90
2018-05-31T18:30:12.031Z,58.20
2018-05-31T18:32:40.036Z,58.20
2018-05-31T18:35:09.184Z,58.50
2018-05-31T18:37:37.698Z,58.50
2018-05-31T18:40:05.585Z,58.60
2018-05-31T18:42:33.356Z,58.80
2018-05-31T18:45:01.168Z,59.00
2018-05-31T18:47:28.982Z,59.40
2018-05-31T18:49:56.737Z,59.50
2018-05-31T18:52:25.257Z,59.70
2018-05-31T18:54:53.295Z,59.70
2018-05-31T18:57:21.829Z,60.30
2018-05-31T18:59:49.590Z,60.30
2018-05-31T19:02:17.401Z,60.30
2018-05-31T19:04:45.953Z,60.70
2018-05-31T19:07:13.804Z,60.80
2018-05-31T19:09:41.670Z,60.70
2018-05-31T19:12:09.541Z,60.70
2018-05-31T19:14:37.551Z,60.10
2018-05-31T19:17:06.192Z,60.40
2018-05-31T19:22:34.207Z,60.10
2018-05-31T19:25:07.610Z,60.30
2018-05-31T19:27:35.360Z,60.40
2018-05-31T19:30:08.760Z,59.90
2018-05-31T19:32:36.521Z,60.30
2018-05-31T19:35:04.896Z,60.90
2018-05-31T19:37:33.368Z,61.20
2018-05-31T19:40:01.132Z,61.50
2018-05-31T19:42:34.525Z,62.50
2018-05-31T19:45:02.993Z,62.00
2018-05-31T19:47:31.140Z,62.50
2018-05-31T19:49:58.904Z,62.90
2018-05-31T19:52:32.123Z,63.10
2018-05-31T19:55:00.638Z,63.70
2018-05-31T19:57:30.017Z,63.90
2018-05-31T20:00:04.089Z,63.90
2018-05-31T20:05:36.424Z,64.80
2018-05-31T20:08:04.824Z,64.80
2018-05-31T20:10:32.577Z,64.70
2018-05-31T20:13:00.718Z,65.20
2018-05-31T20:15:28.553Z,65.50
2018-05-31T20:17:57.814Z,65.80
2018-05-31T20:20:25.568Z,65.80
2018-05-31T20:22:53.450Z,66.50
2018-05-31T20:25:21.659Z,66.00
2018-05-31T20:27:49.421Z,66.40
2018-05-31T20:30:17.946Z,66.50
2018-05-31T20:32:45.709Z,66.50
2018-05-31T20:35:13.464Z,67.20
2018-05-31T20:37:41.229Z,67.20
2018-05-31T20:40:09.597Z,67.30
2018-05-31T20:42:37.356Z,67.30
2018-05-31T20:45:05.710Z,67.30
2018-05-31T20:47:34.962Z,67.80
2018-05-31T20:50:02.750Z,67.80
2018-05-31T20:52:30.507Z,67.80
2018-05-31T20:54:58.261Z,67.60
2018-05-31T20:57:26.043Z,67.80
2018-05-31T20:59:53.864Z,68.30
2018-05-31T21:02:22.378Z,68.90
2018-05-31T21:04:50.562Z,68.90
2018-05-31T21:07:18.316Z,68.70
2018-05-31T21:09:46.079Z,68.70
2018-05-31T21:12:14.325Z,68.70
2018-05-31T21:14:42.080Z,69.30
2018-05-31T21:17:09.871Z,69.70
2018-05-31T21:19:37.625Z,69.50
2018-05-31T21:22:05.385Z,69.70
2018-05-31T21:24:33.160Z,69.50
2018-05-31T21:27:01.925Z,70.10
2018-05-31T21:29:30.260Z,70.10
2018-05-31T21:31:58.028Z,70.10
2018-05-31T21:34:25.913Z,69.90
2018-05-31T21:36:53.935Z,70.30
2018-05-31T21:39:21.689Z,70.20
2018-05-31T21:41:49.970Z,70.10
2018-05-31T21:44:17.716Z,70.30
2018-05-31T21:46:45.957Z,70.20
2018-05-31T21:49:14.477Z,70.60
2018-05-31T21:51:42.240Z,70.60
2018-05-31T21:54:09.997Z,70.70
2018-05-31T21:56:38.319Z,70.70
2018-05-31T21:59:06.132Z,70.80
2018-05-31T22:01:33.894Z,70.90
2018-05-31T22:04:01.706Z,71.10
2018-05-31T22:06:29.465Z,70.40
2018-05-31T22:08:57.237Z,71.00
2018-05-31T22:11:25.022Z,70.80
2018-05-31T22:13:53.549Z,69.00
2018-05-31T22:16:21.435Z,69.10
2018-05-31T22:18:49.301Z,68.40
2018-05-31T22:21:17.169Z,68.00
2018-05-31T22:23:45.036Z,67.50
2018-05-31T22:26:12.828Z,66.90
2018-05-31T22:28:40.593Z,66.70
2018-05-31T22:31:08.533Z,66.80
2018-05-31T22:33:36.399Z,66.70
2018-05-31T22:36:04.368Z,66.30
2018-05-31T22:38:32.236Z,66.30
2018-05-31T22:41:00.029Z,66.80
2018-05-31T22:43:27.968Z,66.80
2018-05-31T22:45:55.874Z,67.80
2018-05-31T22:48:24.521Z,68.40
2018-05-31T22:50:52.416Z,68.30
2018-05-31T22:53:20.253Z,68.20
2018-05-31T22:55:48.120Z,68.60
2018-05-31T22:58:15.987Z,69.10
2018-05-31T23:00:43.956Z,69.50
2018-05-31T23:03:11.752Z,70.10
2018-05-31T23:05:40.333Z,70.30
2018-05-31T23:08:08.173Z,71.60
2018-05-31T23:10:35.964Z,71.70
2018-05-31T23:13:03.903Z,71.60
2018-05-31T23:15:31.696Z,72.30
2018-05-31T23:17:59.635Z,71.90
2018-05-31T23:20:27.503Z,72.50
2018-05-31T23:22:55.369Z,73.20
2018-05-31T23:25:23.236Z,73.10
2018-05-31T23:27:51.205Z,73.60
2018-05-31T23:30:18.964Z,73.10
2018-05-31T23:32:46.836Z,73.70
2018-05-31T23:35:14.702Z,73.50
2018-05-31T23:37:42.569Z,73.70
2018-05-31T23:40:10.435Z,74.10
2018-05-31T23:42:38.229Z,74.30
2018-05-31T23:45:06.168Z,74.30
2018-05-31T23:47:34.035Z,74.30
2018-05-31T23:50:01.904Z,74.40
2018-05-31T23:52:29.769Z,74.20
2018-05-31T23:54:57.634Z,74.40
2018-05-31T23:57:25.604Z,74.80
2018-05-31T23:59:53.470Z,74.80
